sensor_id;sensor_type;location;lat;lon;timestamp;P1;durP1;ratioP1;P2;durP2;ratioP2
46290;SDS011;32023;44.444;26.006;2023-12-04T00:01:44;10.20;;;5.45;;
46290;SDS011;32023;44.444;26.006;2023-12-04T00:04:15;14.55;;;7.80;;
46290;SDS011;32023;44.444;26.006;2023-12-04T00:06:50;17.50;;;8.68;;
46290;SDS011;32023;44.444;26.006;2023-12-04T00:09:27;15.95;;;7.90;;
46290;SDS011;32023;44.444;26.006;2023-12-04T00:12:14;15.77;;;8.93;;
46290;SDS011;32023;44.444;26.006;2023-12-04T00:14:43;19.10;;;8.80;;
46290;SDS011;32023;44.444;26.006;2023-12-04T00:17:16;14.32;;;7.70;;
46290;SDS011;32023;44.444;26.006;2023-12-04T00:19:45;15.30;;;6.53;;
46290;SDS011;32023;44.444;26.006;2023-12-04T00:22:28;15.73;;;8.95;;
46290;SDS011;32023;44.444;26.006;2023-12-04T00:24:55;18.67;;;9.60;;
46290;SDS011;32023;44.444;26.006;2023-12-04T00:27:21;14.63;;;7.55;;
46290;SDS011;32023;44.444;26.006;2023-12-04T00:29:58;17.30;;;9.65;;
46290;SDS011;32023;44.444;26.006;2023-12-04T00:32:29;14.88;;;6.63;;
46290;SDS011;32023;44.444;26.006;2023-12-04T00:35:02;18.40;;;9.98;;
46290;SDS011;32023;44.444;26.006;2023-12-04T00:37:29;16.27;;;8.15;;
46290;SDS011;32023;44.444;26.006;2023-12-04T00:42:56;19.48;;;9.73;;
46290;SDS011;32023;44.444;26.006;2023-12-04T00:45:25;17.70;;;8.98;;
46290;SDS011;32023;44.444;26.006;2023-12-04T00:47:51;17.50;;;9.38;;
46290;SDS011;32023;44.444;26.006;2023-12-04T00:50:20;19.00;;;11.02;;
46290;SDS011;32023;44.444;26.006;2023-12-04T00:52:46;18.80;;;9.32;;
46290;SDS011;32023;44.444;26.006;2023-12-04T00:55:14;17.23;;;9.52;;
46290;SDS011;32023;44.444;26.006;2023-12-04T00:57:45;18.55;;;8.98;;
46290;SDS011;32023;44.444;26.006;2023-12-04T01:00:12;17.33;;;9.20;;
46290;SDS011;32023;44.444;26.006;2023-12-04T01:02:47;17.63;;;9.43;;
46290;SDS011;32023;44.444;26.006;2023-12-04T01:08:07;14.93;;;8.20;;
46290;SDS011;32023;44.444;26.006;2023-12-04T01:10:43;15.68;;;8.02;;
46290;SDS011;32023;44.444;26.006;2023-12-04T01:15:49;15.05;;;8.00;;
46290;SDS011;32023;44.444;26.006;2023-12-04T01:18:16;12.40;;;7.22;;
46290;SDS011;32023;44.444;26.006;2023-12-04T01:23:26;18.75;;;8.25;;
46290;SDS011;32023;44.444;26.006;2023-12-04T01:28:30;16.65;;;8.38;;
46290;SDS011;32023;44.444;26.006;2023-12-04T01:30:58;17.90;;;8.55;;
46290;SDS011;32023;44.444;26.006;2023-12-04T01:33:29;16.05;;;9.57;;
46290;SDS011;32023;44.444;26.006;2023-12-04T01:39:04;11.43;;;7.22;;
46290;SDS011;32023;44.444;26.006;2023-12-04T01:41:30;17.20;;;9.50;;
46290;SDS011;32023;44.444;26.006;2023-12-04T01:44:03;17.92;;;7.75;;
46290;SDS011;32023;44.444;26.006;2023-12-04T01:46:39;16.88;;;8.80;;
46290;SDS011;32023;44.444;26.006;2023-12-04T01:49:17;17.65;;;7.75;;
46290;SDS011;32023;44.444;26.006;2023-12-04T01:54:16;13.75;;;7.15;;
46290;SDS011;32023;44.444;26.006;2023-12-04T01:56:44;16.05;;;8.10;;
46290;SDS011;32023;44.444;26.006;2023-12-04T01:59:24;18.05;;;9.30;;
46290;SDS011;32023;44.444;26.006;2023-12-04T02:02:04;13.45;;;7.78;;
46290;SDS011;32023;44.444;26.006;2023-12-04T02:04:38;16.55;;;8.10;;
46290;SDS011;32023;44.444;26.006;2023-12-04T02:12:23;14.18;;;8.25;;
46290;SDS011;32023;44.444;26.006;2023-12-04T02:15:02;14.88;;;8.15;;
46290;SDS011;32023;44.444;26.006;2023-12-04T02:17:31;12.23;;;7.68;;
46290;SDS011;32023;44.444;26.006;2023-12-04T02:20:07;12.90;;;6.78;;
46290;SDS011;32023;44.444;26.006;2023-12-04T02:22:42;13.13;;;8.05;;
46290;SDS011;32023;44.444;26.006;2023-12-04T02:25:24;15.40;;;8.18;;
46290;SDS011;32023;44.444;26.006;2023-12-04T02:27:59;14.60;;;8.55;;
46290;SDS011;32023;44.444;26.006;2023-12-04T02:33:10;14.90;;;8.80;;
46290;SDS011;32023;44.444;26.006;2023-12-04T02:35:46;18.60;;;8.55;;
46290;SDS011;32023;44.444;26.006;2023-12-04T02:38:18;17.38;;;8.88;;
46290;SDS011;32023;44.444;26.006;2023-12-04T02:40:46;19.70;;;10.55;;
46290;SDS011;32023;44.444;26.006;2023-12-04T02:43:26;16.45;;;8.00;;
46290;SDS011;32023;44.444;26.006;2023-12-04T02:45:53;21.63;;;9.88;;
46290;SDS011;32023;44.444;26.006;2023-12-04T02:48:21;15.23;;;9.05;;
46290;SDS011;32023;44.444;26.006;2023-12-04T02:50:52;19.38;;;9.38;;
46290;SDS011;32023;44.444;26.006;2023-12-04T02:53:22;17.27;;;9.35;;
46290;SDS011;32023;44.444;26.006;2023-12-04T02:55:58;17.85;;;9.77;;
46290;SDS011;32023;44.444;26.006;2023-12-04T02:58:25;17.98;;;9.55;;
46290;SDS011;32023;44.444;26.006;2023-12-04T03:03:27;19.80;;;9.90;;
46290;SDS011;32023;44.444;26.006;2023-12-04T03:05:56;19.15;;;10.02;;
46290;SDS011;32023;44.444;26.006;2023-12-04T03:08:28;21.08;;;9.70;;
46290;SDS011;32023;44.444;26.006;2023-12-04T03:11:09;19.65;;;9.60;;
46290;SDS011;32023;44.444;26.006;2023-12-04T03:13:46;16.70;;;8.95;;
46290;SDS011;32023;44.444;26.006;2023-12-04T03:16:17;20.60;;;10.35;;
46290;SDS011;32023;44.444;26.006;2023-12-04T03:18:44;21.38;;;10.90;;
46290;SDS011;32023;44.444;26.006;2023-12-04T03:23:42;20.27;;;9.95;;
46290;SDS011;32023;44.444;26.006;2023-12-04T03:29:01;20.08;;;8.93;;
46290;SDS011;32023;44.444;26.006;2023-12-04T03:31:30;18.33;;;9.30;;
46290;SDS011;32023;44.444;26.006;2023-12-04T03:34:00;17.63;;;9.40;;
46290;SDS011;32023;44.444;26.006;2023-12-04T03:36:34;19.00;;;10.15;;
46290;SDS011;32023;44.444;26.006;2023-12-04T03:39:10;22.25;;;10.77;;
46290;SDS011;32023;44.444;26.006;2023-12-04T03:41:37;17.23;;;8.52;;
46290;SDS011;32023;44.444;26.006;2023-12-04T03:44:10;18.38;;;9.18;;
46290;SDS011;32023;44.444;26.006;2023-12-04T03:46:43;18.75;;;10.52;;
46290;SDS011;32023;44.444;26.006;2023-12-04T03:49:35;18.27;;;9.70;;
46290;SDS011;32023;44.444;26.006;2023-12-04T03:54:39;21.58;;;10.70;;
46290;SDS011;32023;44.444;26.006;2023-12-04T03:59:55;20.63;;;10.80;;
46290;SDS011;32023;44.444;26.006;2023-12-04T04:02:30;20.10;;;9.52;;
46290;SDS011;32023;44.444;26.006;2023-12-04T04:04:57;22.17;;;10.70;;
46290;SDS011;32023;44.444;26.006;2023-12-04T04:07:23;18.65;;;10.38;;
46290;SDS011;32023;44.444;26.006;2023-12-04T04:10:05;18.23;;;11.15;;
46290;SDS011;32023;44.444;26.006;2023-12-04T04:12:37;17.75;;;10.80;;
46290;SDS011;32023;44.444;26.006;2023-12-04T04:17:38;23.38;;;13.07;;
46290;SDS011;32023;44.444;26.006;2023-12-04T04:20:21;18.38;;;11.32;;
46290;SDS011;32023;44.444;26.006;2023-12-04T04:22:48;21.98;;;12.02;;
46290;SDS011;32023;44.444;26.006;2023-12-04T04:25:15;21.67;;;11.50;;
46290;SDS011;32023;44.444;26.006;2023-12-04T04:27:46;22.30;;;12.93;;
46290;SDS011;32023;44.444;26.006;2023-12-04T04:30:13;20.48;;;12.52;;
46290;SDS011;32023;44.444;26.006;2023-12-04T04:32:48;23.85;;;13.48;;
46290;SDS011;32023;44.444;26.006;2023-12-04T04:35:17;26.63;;;13.82;;
46290;SDS011;32023;44.444;26.006;2023-12-04T04:40:19;20.02;;;12.50;;
46290;SDS011;32023;44.444;26.006;2023-12-04T04:42:55;19.05;;;10.85;;
46290;SDS011;32023;44.444;26.006;2023-12-04T04:45:26;27.00;;;13.25;;
46290;SDS011;32023;44.444;26.006;2023-12-04T04:47:55;21.73;;;12.27;;
46290;SDS011;32023;44.444;26.006;2023-12-04T04:50:40;23.85;;;12.90;;
46290;SDS011;32023;44.444;26.006;2023-12-04T04:53:12;23.88;;;12.88;;
46290;SDS011;32023;44.444;26.006;2023-12-04T04:55:39;25.20;;;12.70;;
46290;SDS011;32023;44.444;26.006;2023-12-04T04:58:07;29.05;;;13.50;;
46290;SDS011;32023;44.444;26.006;2023-12-04T05:00:36;20.08;;;11.45;;
46290;SDS011;32023;44.444;26.006;2023-12-04T05:03:04;21.88;;;13.27;;
46290;SDS011;32023;44.444;26.006;2023-12-04T05:05:31;20.63;;;12.13;;
46290;SDS011;32023;44.444;26.006;2023-12-04T05:08:00;24.48;;;12.77;;
46290;SDS011;32023;44.444;26.006;2023-12-04T05:10:30;18.73;;;10.93;;
46290;SDS011;32023;44.444;26.006;2023-12-04T05:12:56;19.30;;;10.45;;
46290;SDS011;32023;44.444;26.006;2023-12-04T05:15:27;23.60;;;12.48;;
46290;SDS011;32023;44.444;26.006;2023-12-04T05:17:56;22.55;;;11.88;;
46290;SDS011;32023;44.444;26.006;2023-12-04T05:20:28;19.40;;;11.05;;
46290;SDS011;32023;44.444;26.006;2023-12-04T05:23:09;22.52;;;12.60;;
46290;SDS011;32023;44.444;26.006;2023-12-04T05:25:35;21.83;;;11.07;;
46290;SDS011;32023;44.444;26.006;2023-12-04T05:28:05;19.00;;;11.25;;
46290;SDS011;32023;44.444;26.006;2023-12-04T05:30:38;21.40;;;11.80;;
46290;SDS011;32023;44.444;26.006;2023-12-04T05:33:11;19.50;;;11.63;;
46290;SDS011;32023;44.444;26.006;2023-12-04T05:35:41;24.73;;;11.20;;
46290;SDS011;32023;44.444;26.006;2023-12-04T05:38:14;19.20;;;11.15;;
46290;SDS011;32023;44.444;26.006;2023-12-04T05:40:50;21.55;;;10.07;;
46290;SDS011;32023;44.444;26.006;2023-12-04T05:43:16;18.55;;;11.07;;
46290;SDS011;32023;44.444;26.006;2023-12-04T05:46:15;19.30;;;11.77;;
46290;SDS011;32023;44.444;26.006;2023-12-04T05:48:41;20.00;;;11.60;;
46290;SDS011;32023;44.444;26.006;2023-12-04T05:51:25;28.33;;;11.80;;
46290;SDS011;32023;44.444;26.006;2023-12-04T05:54:02;22.42;;;10.95;;
46290;SDS011;32023;44.444;26.006;2023-12-04T05:56:29;25.50;;;12.63;;
46290;SDS011;32023;44.444;26.006;2023-12-04T05:58:55;28.15;;;11.48;;
46290;SDS011;32023;44.444;26.006;2023-12-04T06:01:22;25.98;;;11.85;;
46290;SDS011;32023;44.444;26.006;2023-12-04T06:03:48;20.20;;;10.55;;
46290;SDS011;32023;44.444;26.006;2023-12-04T06:06:15;22.70;;;11.13;;
46290;SDS011;32023;44.444;26.006;2023-12-04T06:08:49;24.58;;;11.13;;
46290;SDS011;32023;44.444;26.006;2023-12-04T06:11:18;16.17;;;9.35;;
46290;SDS011;32023;44.444;26.006;2023-12-04T06:13:47;23.13;;;10.85;;
46290;SDS011;32023;44.444;26.006;2023-12-04T06:16:24;19.27;;;11.30;;
46290;SDS011;32023;44.444;26.006;2023-12-04T06:18:54;18.23;;;10.50;;
46290;SDS011;32023;44.444;26.006;2023-12-04T06:21:20;20.38;;;10.05;;
46290;SDS011;32023;44.444;26.006;2023-12-04T06:23:49;18.08;;;10.75;;
46290;SDS011;32023;44.444;26.006;2023-12-04T06:26:32;17.70;;;9.93;;
46290;SDS011;32023;44.444;26.006;2023-12-04T06:29:02;20.35;;;10.35;;
46290;SDS011;32023;44.444;26.006;2023-12-04T06:31:30;13.68;;;9.05;;
46290;SDS011;32023;44.444;26.006;2023-12-04T06:34:03;16.10;;;9.80;;
46290;SDS011;32023;44.444;26.006;2023-12-04T06:36:40;15.35;;;9.52;;
46290;SDS011;32023;44.444;26.006;2023-12-04T06:39:09;16.67;;;8.48;;
46290;SDS011;32023;44.444;26.006;2023-12-04T06:41:37;16.13;;;9.65;;
46290;SDS011;32023;44.444;26.006;2023-12-04T06:44:24;15.73;;;9.65;;
46290;SDS011;32023;44.444;26.006;2023-12-04T06:46:53;22.45;;;11.23;;
46290;SDS011;32023;44.444;26.006;2023-12-04T06:49:30;19.90;;;11.07;;
46290;SDS011;32023;44.444;26.006;2023-12-04T06:51:58;18.60;;;9.55;;
46290;SDS011;32023;44.444;26.006;2023-12-04T06:57:18;15.10;;;9.40;;
46290;SDS011;32023;44.444;26.006;2023-12-04T06:59:47;16.05;;;10.27;;
46290;SDS011;32023;44.444;26.006;2023-12-04T07:02:14;14.40;;;8.48;;
46290;SDS011;32023;44.444;26.006;2023-12-04T07:04:50;14.25;;;8.82;;
46290;SDS011;32023;44.444;26.006;2023-12-04T07:07:21;14.90;;;9.30;;
46290;SDS011;32023;44.444;26.006;2023-12-04T07:09:52;18.38;;;9.00;;
46290;SDS011;32023;44.444;26.006;2023-12-04T07:15:28;13.50;;;8.48;;
46290;SDS011;32023;44.444;26.006;2023-12-04T07:20:34;18.25;;;10.60;;
46290;SDS011;32023;44.444;26.006;2023-12-04T07:23:01;16.55;;;8.90;;
46290;SDS011;32023;44.444;26.006;2023-12-04T07:25:33;13.95;;;9.13;;
46290;SDS011;32023;44.444;26.006;2023-12-04T07:27:59;16.40;;;8.85;;
46290;SDS011;32023;44.444;26.006;2023-12-04T07:30:27;13.85;;;8.60;;
46290;SDS011;32023;44.444;26.006;2023-12-04T07:32:54;15.38;;;9.63;;
46290;SDS011;32023;44.444;26.006;2023-12-04T07:35:22;16.42;;;10.10;;
46290;SDS011;32023;44.444;26.006;2023-12-04T07:37:49;20.08;;;11.13;;
46290;SDS011;32023;44.444;26.006;2023-12-04T07:40:20;21.75;;;10.30;;
46290;SDS011;32023;44.444;26.006;2023-12-04T07:42:53;15.27;;;8.95;;
46290;SDS011;32023;44.444;26.006;2023-12-04T07:50:29;16.95;;;9.93;;
46290;SDS011;32023;44.444;26.006;2023-12-04T07:53:16;16.55;;;9.65;;
46290;SDS011;32023;44.444;26.006;2023-12-04T07:58:17;16.38;;;8.45;;
46290;SDS011;32023;44.444;26.006;2023-12-04T08:00:52;14.68;;;9.30;;
46290;SDS011;32023;44.444;26.006;2023-12-04T08:03:27;19.40;;;9.90;;
46290;SDS011;32023;44.444;26.006;2023-12-04T08:08:31;17.13;;;9.15;;
46290;SDS011;32023;44.444;26.006;2023-12-04T08:11:02;17.33;;;9.65;;
46290;SDS011;32023;44.444;26.006;2023-12-04T08:13:28;14.57;;;9.07;;
46290;SDS011;32023;44.444;26.006;2023-12-04T08:15:56;18.00;;;10.48;;
46290;SDS011;32023;44.444;26.006;2023-12-04T08:18:23;18.65;;;8.90;;
46290;SDS011;32023;44.444;26.006;2023-12-04T08:20:53;18.08;;;8.88;;
46290;SDS011;32023;44.444;26.006;2023-12-04T08:23:34;16.92;;;9.80;;
46290;SDS011;32023;44.444;26.006;2023-12-04T08:26:08;15.85;;;9.80;;
46290;SDS011;32023;44.444;26.006;2023-12-04T08:31:50;17.27;;;8.18;;
46290;SDS011;32023;44.444;26.006;2023-12-04T08:35:04;15.57;;;9.50;;
46290;SDS011;32023;44.444;26.006;2023-12-04T08:48:31;17.67;;;9.68;;
46290;SDS011;32023;44.444;26.006;2023-12-04T08:51:36;18.00;;;9.65;;
46290;SDS011;32023;44.444;26.006;2023-12-04T08:58:05;14.35;;;9.38;;
46290;SDS011;32023;44.444;26.006;2023-12-04T09:00:42;17.75;;;9.30;;
46290;SDS011;32023;44.444;26.006;2023-12-04T09:03:23;17.30;;;9.35;;
46290;SDS011;32023;44.444;26.006;2023-12-04T09:05:50;14.63;;;8.88;;
46290;SDS011;32023;44.444;26.006;2023-12-04T09:08:24;13.02;;;8.48;;
46290;SDS011;32023;44.444;26.006;2023-12-04T09:13:37;13.82;;;8.52;;
46290;SDS011;32023;44.444;26.006;2023-12-04T09:16:31;13.10;;;8.80;;
46290;SDS011;32023;44.444;26.006;2023-12-04T09:19:10;10.40;;;6.95;;
46290;SDS011;32023;44.444;26.006;2023-12-04T09:21:40;14.38;;;8.00;;
46290;SDS011;32023;44.444;26.006;2023-12-04T09:27:05;13.40;;;8.10;;
46290;SDS011;32023;44.444;26.006;2023-12-04T09:37:23;14.93;;;8.40;;
46290;SDS011;32023;44.444;26.006;2023-12-04T09:42:39;14.77;;;8.30;;
46290;SDS011;32023;44.444;26.006;2023-12-04T09:45:12;11.93;;;7.75;;
46290;SDS011;32023;44.444;26.006;2023-12-04T09:50:27;11.65;;;7.95;;
46290;SDS011;32023;44.444;26.006;2023-12-04T09:53:01;13.70;;;8.63;;
46290;SDS011;32023;44.444;26.006;2023-12-04T09:55:34;18.10;;;8.90;;
46290;SDS011;32023;44.444;26.006;2023-12-04T09:58:08;18.25;;;10.38;;
46290;SDS011;32023;44.444;26.006;2023-12-04T10:00:48;16.70;;;10.70;;
46290;SDS011;32023;44.444;26.006;2023-12-04T10:03:26;13.50;;;8.93;;
46290;SDS011;32023;44.444;26.006;2023-12-04T10:05:54;18.75;;;9.07;;
46290;SDS011;32023;44.444;26.006;2023-12-04T10:08:21;18.08;;;9.05;;
46290;SDS011;32023;44.444;26.006;2023-12-04T10:10:48;21.17;;;8.85;;
46290;SDS011;32023;44.444;26.006;2023-12-04T10:13:14;13.23;;;8.85;;
46290;SDS011;32023;44.444;26.006;2023-12-04T10:16:02;17.40;;;8.55;;
46290;SDS011;32023;44.444;26.006;2023-12-04T10:18:30;11.18;;;7.63;;
46290;SDS011;32023;44.444;26.006;2023-12-04T10:20:57;19.80;;;9.65;;
46290;SDS011;32023;44.444;26.006;2023-12-04T10:33:12;13.05;;;8.32;;
46290;SDS011;32023;44.444;26.006;2023-12-04T10:35:42;13.20;;;7.90;;
46290;SDS011;32023;44.444;26.006;2023-12-04T10:38:09;14.68;;;7.90;;
46290;SDS011;32023;44.444;26.006;2023-12-04T10:40:48;15.95;;;9.20;;
46290;SDS011;32023;44.444;26.006;2023-12-04T10:46:43;20.17;;;8.68;;
46290;SDS011;32023;44.444;26.006;2023-12-04T10:49:18;15.63;;;9.68;;
46290;SDS011;32023;44.444;26.006;2023-12-04T10:51:50;11.93;;;8.85;;
46290;SDS011;32023;44.444;26.006;2023-12-04T10:54:22;15.30;;;8.50;;
46290;SDS011;32023;44.444;26.006;2023-12-04T10:57:10;10.15;;;8.60;;
46290;SDS011;32023;44.444;26.006;2023-12-04T10:59:56;12.65;;;8.20;;
46290;SDS011;32023;44.444;26.006;2023-12-04T11:02:56;12.80;;;8.52;;
46290;SDS011;32023;44.444;26.006;2023-12-04T11:05:30;12.43;;;8.85;;
46290;SDS011;32023;44.444;26.006;2023-12-04T11:08:01;11.50;;;8.25;;
46290;SDS011;32023;44.444;26.006;2023-12-04T11:10:50;10.23;;;8.23;;
46290;SDS011;32023;44.444;26.006;2023-12-04T11:13:32;10.80;;;8.50;;
46290;SDS011;32023;44.444;26.006;2023-12-04T11:22:44;11.65;;;8.45;;
46290;SDS011;32023;44.444;26.006;2023-12-04T11:27:51;9.95;;;8.13;;
46290;SDS011;32023;44.444;26.006;2023-12-04T11:30:19;11.32;;;8.07;;
46290;SDS011;32023;44.444;26.006;2023-12-04T11:36:33;12.82;;;8.63;;
46290;SDS011;32023;44.444;26.006;2023-12-04T11:39:32;12.02;;;7.63;;
46290;SDS011;32023;44.444;26.006;2023-12-04T11:42:34;13.77;;;8.80;;
46290;SDS011;32023;44.444;26.006;2023-12-04T11:50:33;17.75;;;8.82;;
46290;SDS011;32023;44.444;26.006;2023-12-04T12:00:24;10.35;;;7.88;;
46290;SDS011;32023;44.444;26.006;2023-12-04T12:03:06;15.75;;;8.98;;
46290;SDS011;32023;44.444;26.006;2023-12-04T12:05:45;14.10;;;9.32;;
46290;SDS011;32023;44.444;26.006;2023-12-04T12:09:14;11.02;;;8.05;;
46290;SDS011;32023;44.444;26.006;2023-12-04T12:12:20;15.85;;;8.55;;
46290;SDS011;32023;44.444;26.006;2023-12-04T12:26:18;13.57;;;8.70;;
46290;SDS011;32023;44.444;26.006;2023-12-04T12:29:35;11.98;;;7.50;;
46290;SDS011;32023;44.444;26.006;2023-12-04T12:39:07;14.02;;;9.25;;
46290;SDS011;32023;44.444;26.006;2023-12-04T12:42:32;14.57;;;9.93;;
46290;SDS011;32023;44.444;26.006;2023-12-04T12:51:33;18.30;;;8.18;;
46290;SDS011;32023;44.444;26.006;2023-12-04T13:00:46;17.05;;;8.60;;
46290;SDS011;32023;44.444;26.006;2023-12-04T13:10:29;14.93;;;9.05;;
46290;SDS011;32023;44.444;26.006;2023-12-04T13:17:07;13.63;;;8.68;;
46290;SDS011;32023;44.444;26.006;2023-12-04T13:21:11;16.10;;;8.30;;
46290;SDS011;32023;44.444;26.006;2023-12-04T13:38:45;15.90;;;8.65;;
46290;SDS011;32023;44.444;26.006;2023-12-04T13:41:43;15.20;;;8.77;;
46290;SDS011;32023;44.444;26.006;2023-12-04T13:45:07;13.45;;;8.38;;
46290;SDS011;32023;44.444;26.006;2023-12-04T13:47:41;15.85;;;7.78;;
46290;SDS011;32023;44.444;26.006;2023-12-04T13:50:12;14.63;;;8.68;;
46290;SDS011;32023;44.444;26.006;2023-12-04T13:52:38;13.48;;;8.82;;
46290;SDS011;32023;44.444;26.006;2023-12-04T13:55:12;18.25;;;8.57;;
46290;SDS011;32023;44.444;26.006;2023-12-04T13:57:51;15.32;;;9.25;;
46290;SDS011;32023;44.444;26.006;2023-12-04T14:00:43;16.75;;;8.95;;
46290;SDS011;32023;44.444;26.006;2023-12-04T14:03:51;15.60;;;9.40;;
46290;SDS011;32023;44.444;26.006;2023-12-04T14:12:47;16.40;;;9.68;;
46290;SDS011;32023;44.444;26.006;2023-12-04T14:28:10;14.85;;;9.30;;
46290;SDS011;32023;44.444;26.006;2023-12-04T14:30:45;16.73;;;8.95;;
46290;SDS011;32023;44.444;26.006;2023-12-04T14:34:09;19.15;;;10.05;;
46290;SDS011;32023;44.444;26.006;2023-12-04T14:42:10;12.85;;;8.93;;
46290;SDS011;32023;44.444;26.006;2023-12-04T15:27:22;19.45;;;10.32;;
46290;SDS011;32023;44.444;26.006;2023-12-04T15:29:53;24.35;;;11.70;;
46290;SDS011;32023;44.444;26.006;2023-12-04T15:35:13;21.83;;;10.20;;
46290;SDS011;32023;44.444;26.006;2023-12-04T15:40:59;21.45;;;10.38;;
46290;SDS011;32023;44.444;26.006;2023-12-04T15:50:21;19.90;;;10.07;;
46290;SDS011;32023;44.444;26.006;2023-12-04T15:56:02;20.27;;;11.35;;
46290;SDS011;32023;44.444;26.006;2023-12-04T16:02:02;19.00;;;10.93;;
46290;SDS011;32023;44.444;26.006;2023-12-04T16:08:48;19.48;;;11.27;;
46290;SDS011;32023;44.444;26.006;2023-12-04T16:11:17;24.63;;;12.02;;
46290;SDS011;32023;44.444;26.006;2023-12-04T16:13:52;17.92;;;11.43;;
46290;SDS011;32023;44.444;26.006;2023-12-04T16:16:39;21.05;;;11.32;;
46290;SDS011;32023;44.444;26.006;2023-12-04T16:19:14;18.63;;;11.60;;
46290;SDS011;32023;44.444;26.006;2023-12-04T16:28:00;22.13;;;12.15;;
46290;SDS011;32023;44.444;26.006;2023-12-04T16:31:06;25.70;;;14.63;;
46290;SDS011;32023;44.444;26.006;2023-12-04T16:33:39;23.85;;;12.55;;
46290;SDS011;32023;44.444;26.006;2023-12-04T16:36:12;23.58;;;12.90;;
46290;SDS011;32023;44.444;26.006;2023-12-04T16:38:41;22.77;;;11.93;;
46290;SDS011;32023;44.444;26.006;2023-12-04T16:44:29;18.33;;;11.02;;
46290;SDS011;32023;44.444;26.006;2023-12-04T16:50:10;20.17;;;11.10;;
46290;SDS011;32023;44.444;26.006;2023-12-04T16:52:48;23.50;;;10.98;;
46290;SDS011;32023;44.444;26.006;2023-12-04T16:55:19;22.38;;;12.57;;
46290;SDS011;32023;44.444;26.006;2023-12-04T17:00:49;22.75;;;11.85;;
46290;SDS011;32023;44.444;26.006;2023-12-04T17:03:23;21.25;;;11.18;;
46290;SDS011;32023;44.444;26.006;2023-12-04T17:08:53;26.88;;;12.70;;
46290;SDS011;32023;44.444;26.006;2023-12-04T17:11:20;20.58;;;11.77;;
46290;SDS011;32023;44.444;26.006;2023-12-04T17:14:05;19.20;;;11.52;;
46290;SDS011;32023;44.444;26.006;2023-12-04T17:16:31;17.10;;;10.77;;
46290;SDS011;32023;44.444;26.006;2023-12-04T17:19:01;22.27;;;10.88;;
46290;SDS011;32023;44.444;26.006;2023-12-04T17:21:29;16.13;;;10.55;;
46290;SDS011;32023;44.444;26.006;2023-12-04T17:23:56;19.92;;;11.15;;
46290;SDS011;32023;44.444;26.006;2023-12-04T17:26:26;19.05;;;11.25;;
46290;SDS011;32023;44.444;26.006;2023-12-04T17:29:05;23.17;;;12.32;;
46290;SDS011;32023;44.444;26.006;2023-12-04T17:31:57;19.98;;;11.38;;
46290;SDS011;32023;44.444;26.006;2023-12-04T17:34:28;17.75;;;11.07;;
46290;SDS011;32023;44.444;26.006;2023-12-04T17:37:15;18.00;;;11.82;;
46290;SDS011;32023;44.444;26.006;2023-12-04T17:42:52;21.35;;;12.52;;
46290;SDS011;32023;44.444;26.006;2023-12-04T17:45:37;26.10;;;13.68;;
46290;SDS011;32023;44.444;26.006;2023-12-04T17:53:23;25.52;;;13.55;;
46290;SDS011;32023;44.444;26.006;2023-12-04T17:55:57;21.77;;;12.45;;
46290;SDS011;32023;44.444;26.006;2023-12-04T17:58:27;23.13;;;13.55;;
46290;SDS011;32023;44.444;26.006;2023-12-04T18:01:15;23.65;;;14.13;;
46290;SDS011;32023;44.444;26.006;2023-12-04T18:09:17;22.48;;;14.60;;
46290;SDS011;32023;44.444;26.006;2023-12-04T18:18:14;25.95;;;14.73;;
46290;SDS011;32023;44.444;26.006;2023-12-04T18:21:08;24.45;;;15.13;;
46290;SDS011;32023;44.444;26.006;2023-12-04T18:24:14;26.73;;;15.80;;
46290;SDS011;32023;44.444;26.006;2023-12-04T18:29:45;32.22;;;16.13;;
46290;SDS011;32023;44.444;26.006;2023-12-04T18:32:41;27.20;;;14.52;;
46290;SDS011;32023;44.444;26.006;2023-12-04T18:41:51;31.90;;;16.80;;
46290;SDS011;32023;44.444;26.006;2023-12-04T18:44:31;30.33;;;16.60;;
46290;SDS011;32023;44.444;26.006;2023-12-04T18:47:36;29.80;;;16.55;;
46290;SDS011;32023;44.444;26.006;2023-12-04T18:50:27;28.48;;;15.93;;
46290;SDS011;32023;44.444;26.006;2023-12-04T18:56:56;30.13;;;15.80;;
46290;SDS011;32023;44.444;26.006;2023-12-04T19:02:49;19.85;;;12.15;;
46290;SDS011;32023;44.444;26.006;2023-12-04T19:05:37;21.08;;;11.65;;
46290;SDS011;32023;44.444;26.006;2023-12-04T19:08:16;19.45;;;10.77;;
46290;SDS011;32023;44.444;26.006;2023-12-04T19:10:56;21.55;;;12.32;;
46290;SDS011;32023;44.444;26.006;2023-12-04T19:13:28;18.98;;;11.73;;
46290;SDS011;32023;44.444;26.006;2023-12-04T19:16:12;26.75;;;12.98;;
46290;SDS011;32023;44.444;26.006;2023-12-04T19:18:54;38.75;;;19.27;;
46290;SDS011;32023;44.444;26.006;2023-12-04T19:40:21;24.83;;;15.10;;
46290;SDS011;32023;44.444;26.006;2023-12-04T19:43:14;25.52;;;13.45;;
46290;SDS011;32023;44.444;26.006;2023-12-04T19:52:53;35.40;;;16.63;;
46290;SDS011;32023;44.444;26.006;2023-12-04T19:56:22;25.70;;;14.25;;
46290;SDS011;32023;44.444;26.006;2023-12-04T20:03:35;25.08;;;12.85;;
46290;SDS011;32023;44.444;26.006;2023-12-04T20:13:44;20.65;;;12.38;;
46290;SDS011;32023;44.444;26.006;2023-12-04T20:16:36;29.05;;;14.20;;
46290;SDS011;32023;44.444;26.006;2023-12-04T20:19:37;21.83;;;12.93;;
46290;SDS011;32023;44.444;26.006;2023-12-04T20:26:03;28.55;;;13.50;;
46290;SDS011;32023;44.444;26.006;2023-12-04T20:55:54;54.22;;;20.73;;
46290;SDS011;32023;44.444;26.006;2023-12-04T20:58:20;41.35;;;16.65;;
46290;SDS011;32023;44.444;26.006;2023-12-04T21:06:59;44.72;;;20.48;;
46290;SDS011;32023;44.444;26.006;2023-12-04T21:28:43;61.22;;;28.70;;
46290;SDS011;32023;44.444;26.006;2023-12-04T21:35:01;63.00;;;30.83;;
46290;SDS011;32023;44.444;26.006;2023-12-04T21:38:05;66.25;;;31.15;;
46290;SDS011;32023;44.444;26.006;2023-12-04T21:44:14;82.68;;;37.10;;
46290;SDS011;32023;44.444;26.006;2023-12-04T21:50:07;81.90;;;41.33;;
46290;SDS011;32023;44.444;26.006;2023-12-04T21:53:23;80.88;;;39.00;;
46290;SDS011;32023;44.444;26.006;2023-12-04T21:56:36;75.93;;;38.80;;
46290;SDS011;32023;44.444;26.006;2023-12-04T22:06:25;68.75;;;34.78;;
46290;SDS011;32023;44.444;26.006;2023-12-04T22:08:56;73.85;;;35.70;;
46290;SDS011;32023;44.444;26.006;2023-12-04T22:11:59;63.05;;;32.90;;
46290;SDS011;32023;44.444;26.006;2023-12-04T22:14:41;72.07;;;33.95;;
46290;SDS011;32023;44.444;26.006;2023-12-04T22:17:20;64.10;;;31.95;;
46290;SDS011;32023;44.444;26.006;2023-12-04T22:26:12;56.25;;;27.15;;
46290;SDS011;32023;44.444;26.006;2023-12-04T22:28:41;47.15;;;23.67;;
46290;SDS011;32023;44.444;26.006;2023-12-04T22:31:11;39.13;;;21.95;;
46290;SDS011;32023;44.444;26.006;2023-12-04T22:36:49;54.87;;;28.63;;
46290;SDS011;32023;44.444;26.006;2023-12-04T22:39:17;49.58;;;28.35;;
46290;SDS011;32023;44.444;26.006;2023-12-04T22:41:43;43.60;;;24.58;;
46290;SDS011;32023;44.444;26.006;2023-12-04T22:44:10;47.17;;;23.88;;
46290;SDS011;32023;44.444;26.006;2023-12-04T22:46:37;39.47;;;21.13;;
46290;SDS011;32023;44.444;26.006;2023-12-04T22:49:08;40.45;;;21.55;;
46290;SDS011;32023;44.444;26.006;2023-12-04T22:51:37;46.78;;;24.63;;